createdAt,value
2019-04-05T00:00:12.303Z,2.10
2019-04-05T00:02:42.316Z,2.12
2019-04-05T00:05:11.073Z,1.74
2019-04-05T00:07:38.767Z,1.60
2019-04-05T00:10:07.256Z,1.62
2019-04-05T00:12:35.624Z,1.64
2019-04-05T00:15:15.312Z,1.68
2019-04-05T00:17:34.431Z,1.76
2019-04-05T00:20:04.894Z,1.89
2019-04-05T00:22:32.206Z,1.73
2019-04-05T00:24:59.973Z,1.55
2019-04-05T00:27:27.842Z,1.47
2019-04-05T00:29:55.621Z,1.48
2019-04-05T00:32:23.360Z,1.45
2019-04-05T00:34:51.230Z,1.35
2019-04-05T00:37:19.096Z,1.32
2019-04-05T00:39:46.962Z,1.44
2019-04-05T00:42:14.827Z,1.30
2019-04-05T00:44:42.589Z,1.24
2019-04-05T00:47:10.354Z,1.39
2019-04-05T00:49:38.116Z,1.26
2019-04-05T00:52:05.979Z,1.20
2019-04-05T00:54:34.975Z,1.21
2019-04-05T00:57:02.841Z,1.20
2019-04-05T00:59:30.602Z,1.05
2019-04-05T01:01:59.089Z,1.02
2019-04-05T01:04:26.948Z,1.02
2019-04-05T01:06:54.711Z,0.96
2019-04-05T01:09:22.476Z,0.97
2019-04-05T01:11:50.239Z,0.98
2019-04-05T01:14:19.646Z,0.98
2019-04-05T01:16:47.410Z,0.84
2019-04-05T01:19:15.173Z,0.86
2019-04-05T01:21:45.082Z,0.98
2019-04-05T01:24:12.643Z,0.92
2019-04-05T01:26:40.812Z,0.86
2019-04-05T01:29:08.683Z,0.67
2019-04-05T01:31:36.446Z,0.69
2019-04-05T01:34:06.566Z,0.46
2019-04-05T01:36:34.551Z,0.49
2019-04-05T01:39:03.931Z,0.43
2019-04-05T01:41:31.598Z,0.39
2019-04-05T01:43:59.358Z,0.42
2019-04-05T01:46:27.939Z,0.38
2019-04-05T01:48:55.732Z,0.32
2019-04-05T01:51:23.474Z,0.27
2019-04-05T01:53:51.847Z,0.35
2019-04-05T01:56:19.626Z,0.38
2019-04-05T01:58:47.373Z,0.29
2019-04-05T02:01:15.656Z,0.32
2019-04-05T02:03:43.207Z,0.37
2019-04-05T02:06:10.971Z,0.18
2019-04-05T02:08:38.739Z,0.17
2019-04-05T02:11:06.499Z,0.04
2019-04-05T02:13:34.462Z,0.12
2019-04-05T02:16:06.654Z,0.16
2019-04-05T02:18:31.943Z,0.08
2019-04-05T02:20:59.705Z,0.02
2019-04-05T02:23:27.463Z,0.01
2019-04-05T02:25:55.335Z,0.01
2019-04-05T02:28:25.395Z,-0.06
2019-04-05T02:30:53.325Z,0.01
2019-04-05T02:33:21.081Z,0.10
2019-04-05T02:35:48.949Z,0.01
2019-04-05T02:38:16.928Z,-0.03
2019-04-05T02:40:44.677Z,0.02
2019-04-05T02:43:12.445Z,-0.03
2019-04-05T02:45:40.209Z,0.08
2019-04-05T02:48:08.186Z,0.15
2019-04-05T02:50:37.071Z,0.28
2019-04-05T02:53:05.444Z,0.19
2019-04-05T02:55:34.132Z,0.18
2019-04-05T02:58:01.897Z,0.15
2019-04-05T03:00:29.763Z,0.16
2019-04-05T03:02:58.135Z,0.11
2019-04-05T03:05:26.467Z,0.04
2019-04-05T03:07:56.939Z,0.17
2019-04-05T03:10:51.122Z,0.15
2019-04-05T03:13:22.883Z,0.09
2019-04-05T03:15:51.560Z,0.17
2019-04-05T03:18:19.124Z,0.18
2019-04-05T03:20:46.883Z,0.11
2019-04-05T03:23:14.661Z,0.17
2019-04-05T03:25:42.526Z,0.22
2019-04-05T03:28:10.277Z,0.04
2019-04-05T03:30:38.148Z,0.15
2019-04-05T03:33:06.360Z,0.17
2019-04-05T03:35:35.010Z,0.14
2019-04-05T03:38:02.984Z,0.28
2019-04-05T03:40:30.851Z,0.22
2019-04-05T03:42:58.603Z,0.19
2019-04-05T03:45:26.470Z,0.27
2019-04-05T03:47:54.442Z,0.26
2019-04-05T03:50:22.403Z,0.42
2019-04-05T03:52:50.273Z,0.52
2019-04-05T03:55:18.853Z,0.66
2019-04-05T03:57:46.924Z,0.75
2019-04-05T04:00:14.998Z,0.86
2019-04-05T04:02:43.168Z,0.92
2019-04-05T04:05:10.933Z,1.21
2019-04-05T04:07:39.006Z,1.27
2019-04-05T04:10:10.763Z,1.28
2019-04-05T04:12:38.825Z,1.19
2019-04-05T04:15:14.020Z,1.27
2019-04-05T04:17:42.140Z,1.11
2019-04-05T04:20:34.890Z,1.27
2019-04-05T04:23:04.394Z,1.27
2019-04-05T04:25:32.565Z,1.43
2019-04-05T04:28:00.650Z,1.46
2019-04-05T04:30:28.610Z,1.68
2019-04-05T04:32:56.570Z,1.94
2019-04-05T04:35:24.548Z,1.92
2019-04-05T04:37:52.613Z,2.06
2019-04-05T04:40:20.698Z,2.21
2019-04-05T04:42:48.652Z,2.40
2019-04-05T04:45:16.621Z,2.53
2019-04-05T04:47:45.202Z,2.49
2019-04-05T04:50:13.285Z,2.72
2019-04-05T04:52:41.266Z,2.70
2019-04-05T04:55:09.820Z,3.00
2019-04-05T04:57:39.137Z,3.28
2019-04-05T05:00:07.298Z,3.22
2019-04-05T05:02:35.672Z,3.57
2019-04-05T05:05:05.794Z,4.05
2019-04-05T05:07:33.350Z,4.10
2019-04-05T05:10:03.434Z,4.13
2019-04-05T05:12:31.234Z,4.22
2019-04-05T05:14:59.505Z,4.46
2019-04-05T05:17:37.683Z,4.85
2019-04-05T05:19:56.786Z,5.08
2019-04-05T05:22:24.962Z,5.23
2019-04-05T05:24:52.921Z,4.79
2019-04-05T05:27:20.987Z,5.27
2019-04-05T05:29:48.953Z,5.67
2019-04-05T05:32:16.923Z,5.32
2019-04-05T05:34:44.894Z,5.71
2019-04-05T05:37:12.967Z,5.96
2019-04-05T05:39:41.039Z,5.93
2019-04-05T05:42:09.000Z,6.02
2019-04-05T05:44:36.969Z,6.01
2019-04-05T05:47:05.043Z,5.83
2019-04-05T05:49:33.008Z,5.25
2019-04-05T05:52:00.877Z,5.31
2019-04-05T05:54:30.289Z,5.43
2019-04-05T05:56:58.146Z,5.74
2019-04-05T05:59:29.677Z,6.37
2019-04-05T06:01:56.028Z,6.71
2019-04-05T06:04:23.897Z,6.78
2019-04-05T06:06:51.961Z,6.84
2019-04-05T06:09:19.941Z,7.10
2019-04-05T06:11:48.006Z,7.17
2019-04-05T06:14:16.070Z,7.41
2019-04-05T06:16:46.497Z,7.14
2019-04-05T06:19:14.466Z,7.13
2019-04-05T06:21:42.539Z,7.37
2019-04-05T06:24:10.606Z,7.15
2019-04-05T06:26:38.542Z,7.28
2019-04-05T06:29:06.446Z,7.47
2019-04-05T06:31:34.414Z,7.33
2019-04-05T06:34:02.380Z,7.60
2019-04-05T06:36:30.857Z,7.60
2019-04-05T06:38:58.783Z,7.73
2019-04-05T06:41:26.796Z,7.95
2019-04-05T06:43:54.761Z,8.15
2019-04-05T06:46:22.736Z,7.70
2019-04-05T06:48:50.701Z,7.94
2019-04-05T06:51:19.486Z,8.20
2019-04-05T06:53:47.865Z,8.08
2019-04-05T06:56:15.741Z,8.43
2019-04-05T06:58:46.225Z,8.63
2019-04-05T07:01:13.514Z,8.70
2019-04-05T07:03:41.176Z,8.54
2019-04-05T07:06:09.150Z,8.54
2019-04-05T07:08:37.124Z,8.98
2019-04-05T07:11:05.034Z,8.98
2019-04-05T07:13:33.051Z,8.97
2019-04-05T07:16:01.023Z,9.28
2019-04-05T07:18:35.577Z,9.22
2019-04-05T07:20:59.004Z,9.28
2019-04-05T07:23:27.068Z,8.66
2019-04-05T07:25:55.149Z,8.34
2019-04-05T07:28:25.146Z,8.34
2019-04-05T07:30:53.025Z,8.78
2019-04-05T07:33:20.992Z,9.06
2019-04-05T07:35:49.172Z,9.32
2019-04-05T07:38:17.235Z,9.45
2019-04-05T07:40:44.998Z,9.35
2019-04-05T07:43:13.271Z,9.38
2019-04-05T07:45:41.343Z,9.53
2019-04-05T07:48:09.426Z,9.52
2019-04-05T07:50:38.308Z,9.62
2019-04-05T07:53:06.792Z,9.72
2019-04-05T07:55:34.858Z,9.84
2019-04-05T07:58:02.826Z,9.82
2019-04-05T08:00:43.795Z,9.77
2019-04-05T08:03:12.070Z,10.01
2019-04-05T08:05:39.840Z,9.72
2019-04-05T08:08:11.470Z,10.14
2019-04-05T08:10:39.359Z,10.14
2019-04-05T08:13:07.578Z,9.90
2019-04-05T08:15:35.608Z,10.03
2019-04-05T08:18:03.571Z,10.21
2019-04-05T08:20:31.537Z,9.79
2019-04-05T08:22:59.609Z,9.59
2019-04-05T08:25:27.886Z,9.63
2019-04-05T08:27:55.547Z,9.85
2019-04-05T08:30:23.518Z,9.67
2019-04-05T08:32:51.452Z,9.84
2019-04-05T08:35:19.663Z,9.83
2019-04-05T08:37:47.728Z,10.06
2019-04-05T08:40:16.316Z,10.35
2019-04-05T08:42:44.586Z,10.60
2019-04-05T08:45:12.559Z,10.52
2019-04-05T08:47:40.457Z,10.27
2019-04-05T08:50:08.697Z,10.40
2019-04-05T08:52:36.666Z,10.58
2019-04-05T08:55:05.352Z,10.60
2019-04-05T08:57:33.116Z,10.69
2019-04-05T09:00:01.095Z,10.30
2019-04-05T09:02:29.462Z,10.74
2019-04-05T09:04:57.332Z,10.74
2019-04-05T09:07:25.401Z,10.80
2019-04-05T09:09:53.468Z,10.76
2019-04-05T09:12:21.533Z,10.38
2019-04-05T09:14:49.605Z,10.61
2019-04-05T09:17:17.374Z,10.71
2019-04-05T09:19:45.444Z,10.61
2019-04-05T09:22:13.407Z,10.33
2019-04-05T09:24:41.479Z,10.32
2019-04-05T09:27:09.553Z,10.61
2019-04-05T09:29:37.415Z,10.83
2019-04-05T09:32:05.486Z,10.82
2019-04-05T09:34:33.566Z,11.07
2019-04-05T09:37:01.636Z,11.24
2019-04-05T09:39:29.810Z,11.43
2019-04-05T09:41:57.780Z,11.32
2019-04-05T09:44:25.839Z,11.32
2019-04-05T09:46:53.811Z,11.26
2019-04-05T09:49:21.774Z,11.16
2019-04-05T09:51:49.956Z,10.96
2019-04-05T09:54:18.599Z,11.25
2019-04-05T09:56:47.421Z,11.24
2019-04-05T09:59:15.393Z,11.30
2019-04-05T10:01:43.810Z,10.70
2019-04-05T10:04:11.636Z,11.01
2019-04-05T10:06:39.711Z,11.23
2019-04-05T10:09:08.185Z,11.06
2019-04-05T10:11:36.476Z,11.22
2019-04-05T10:14:04.634Z,11.27
2019-04-05T10:16:32.609Z,11.13
2019-04-05T10:19:00.575Z,10.88
2019-04-05T10:21:28.549Z,11.18
2019-04-05T10:23:56.409Z,11.20
2019-04-05T10:26:24.480Z,11.38
2019-04-05T10:28:52.553Z,11.39
2019-04-05T10:31:20.415Z,11.45
2019-04-05T10:33:48.384Z,11.42
2019-04-05T10:36:16.462Z,11.56
2019-04-05T10:38:44.628Z,11.75
2019-04-05T10:41:12.539Z,11.29
2019-04-05T10:43:40.561Z,10.80
2019-04-05T10:46:08.736Z,11.14
2019-04-05T10:48:36.912Z,11.25
2019-04-05T10:51:04.977Z,11.39
2019-04-05T10:53:33.871Z,11.77
2019-04-05T10:56:01.638Z,11.72
2019-04-05T10:58:29.603Z,11.69
2019-04-05T11:00:58.095Z,11.63
2019-04-05T11:03:25.950Z,11.49
2019-04-05T11:05:53.815Z,11.75
2019-04-05T11:08:21.782Z,11.78
2019-04-05T11:10:49.754Z,11.56
2019-04-05T11:13:17.924Z,11.52
2019-04-05T11:15:45.791Z,11.88
2019-04-05T11:18:13.759Z,11.73
2019-04-05T11:20:42.341Z,11.39
2019-04-05T11:23:11.129Z,11.44
2019-04-05T11:25:39.197Z,11.28
2019-04-05T11:28:07.274Z,11.60
2019-04-05T11:30:45.076Z,11.70
2019-04-05T11:33:13.151Z,11.98
2019-04-05T11:35:41.524Z,12.03
2019-04-05T11:38:10.304Z,11.97
2019-04-05T11:40:38.383Z,11.96
2019-04-05T11:43:07.059Z,12.09
2019-04-05T11:45:35.245Z,11.98
2019-04-05T11:48:04.332Z,12.11
2019-04-05T11:50:34.732Z,12.01
2019-04-05T11:53:02.619Z,11.88
2019-04-05T11:55:31.304Z,12.07
2019-04-05T11:57:59.585Z,12.26
2019-04-05T12:00:29.606Z,11.85
2019-04-05T12:03:09.813Z,11.61
2019-04-05T12:05:37.620Z,11.94
2019-04-05T12:08:05.482Z,12.22
2019-04-05T12:10:33.760Z,12.22
2019-04-05T12:13:01.831Z,12.17
2019-04-05T12:15:29.702Z,12.18
2019-04-05T12:17:57.661Z,12.43
2019-04-05T12:20:25.839Z,12.33
2019-04-05T12:22:53.911Z,12.13
2019-04-05T12:25:21.876Z,12.37
2019-04-05T12:27:49.874Z,12.37
2019-04-05T12:30:19.670Z,12.48
2019-04-05T12:32:48.924Z,12.32
2019-04-05T12:35:17.228Z,12.33
2019-04-05T12:37:50.615Z,12.34
2019-04-05T12:40:14.957Z,12.34
2019-04-05T12:42:43.899Z,12.20
2019-04-05T12:45:14.666Z,11.76
2019-04-05T12:47:45.345Z,11.85
2019-04-05T12:50:14.163Z,12.11
2019-04-05T12:52:41.616Z,12.21
2019-04-05T12:55:10.396Z,12.44
2019-04-05T12:57:38.282Z,12.50
2019-04-05T13:00:13.195Z,12.43
2019-04-05T13:02:40.250Z,12.31
2019-04-05T13:05:09.439Z,12.36
2019-04-05T13:07:37.715Z,12.30
2019-04-05T13:10:05.794Z,12.41
2019-04-05T13:12:33.959Z,12.58
2019-04-05T13:15:12.215Z,12.81
2019-04-05T13:17:32.154Z,12.70
2019-04-05T13:20:00.874Z,12.58
2019-04-05T13:22:32.392Z,12.56
2019-04-05T13:24:59.138Z,12.14
2019-04-05T13:27:28.834Z,11.95
2019-04-05T13:29:56.699Z,12.13
2019-04-05T13:32:25.139Z,12.19
2019-04-05T13:34:53.530Z,12.43
2019-04-05T13:37:22.658Z,12.48
2019-04-05T13:39:50.798Z,12.53
2019-04-05T13:42:18.898Z,12.48
2019-04-05T13:44:46.884Z,12.50
2019-04-05T13:47:14.837Z,12.53
2019-04-05T13:49:42.804Z,12.66
2019-04-05T13:52:12.021Z,12.71
2019-04-05T13:54:41.001Z,12.76
2019-04-05T13:57:11.386Z,12.49
2019-04-05T13:59:38.367Z,12.47
2019-04-05T14:02:06.972Z,12.60
2019-04-05T14:04:34.915Z,12.58
2019-04-05T14:07:03.837Z,12.52
2019-04-05T14:09:31.794Z,12.10
2019-04-05T14:11:59.879Z,12.14
2019-04-05T14:14:28.518Z,12.13
2019-04-05T14:16:57.016Z,12.00
2019-04-05T14:19:25.099Z,11.96
2019-04-05T14:21:53.741Z,12.08
2019-04-05T14:24:23.480Z,12.21
2019-04-05T14:26:51.751Z,12.42
2019-04-05T14:29:20.334Z,12.12
2019-04-05T14:31:48.420Z,12.33
2019-04-05T14:34:16.304Z,12.41
2019-04-05T14:36:44.758Z,12.25
2019-04-05T14:39:12.927Z,12.29
2019-04-05T14:41:40.787Z,12.20
2019-04-05T14:44:08.758Z,11.99
2019-04-05T14:46:38.353Z,11.97
2019-04-05T14:49:06.433Z,12.07
2019-04-05T14:51:34.610Z,11.94
2019-04-05T14:54:03.524Z,11.83
2019-04-05T14:56:32.079Z,12.08
2019-04-05T14:59:00.152Z,12.21
2019-04-05T15:01:28.630Z,12.20
2019-04-05T15:03:56.301Z,12.15
2019-04-05T15:06:26.506Z,12.11
2019-04-05T15:08:53.864Z,11.93
2019-04-05T15:11:21.832Z,11.80
2019-04-05T15:13:49.906Z,11.87
2019-04-05T15:16:17.964Z,11.90
2019-04-05T15:18:46.017Z,11.90
2019-04-05T15:21:13.909Z,11.83
2019-04-05T15:23:45.254Z,11.72
2019-04-05T15:26:11.897Z,11.57
2019-04-05T15:28:39.660Z,11.61
2019-04-05T15:31:07.626Z,11.55
2019-04-05T15:33:36.413Z,11.48
2019-04-05T15:36:04.589Z,11.42
2019-04-05T15:38:32.560Z,11.56
2019-04-05T15:41:00.735Z,11.36
2019-04-05T15:43:28.814Z,11.43
2019-04-05T15:45:56.770Z,11.48
2019-04-05T15:48:24.737Z,11.34
2019-04-05T15:50:55.879Z,11.39
2019-04-05T15:53:22.725Z,11.29
2019-04-05T15:55:50.488Z,11.18
2019-04-05T15:58:18.458Z,11.02
2019-04-05T16:00:46.935Z,10.89
2019-04-05T16:03:14.706Z,10.82
2019-04-05T16:05:42.671Z,10.61
2019-04-05T16:08:10.759Z,10.49
2019-04-05T16:10:38.704Z,10.38
2019-04-05T16:13:08.270Z,10.28
2019-04-05T16:15:36.175Z,10.25
2019-04-05T16:18:04.466Z,10.24
2019-04-05T16:20:32.323Z,10.22
2019-04-05T16:23:00.286Z,10.08
2019-04-05T16:25:28.362Z,10.00
2019-04-05T16:27:56.441Z,9.93
2019-04-05T16:30:24.504Z,9.95
2019-04-05T16:32:52.365Z,9.92
2019-04-05T16:35:20.540Z,9.83
2019-04-05T16:37:48.622Z,9.74
2019-04-05T16:40:16.584Z,9.67
2019-04-05T16:42:44.556Z,9.65
2019-04-05T16:45:12.516Z,9.65
2019-04-05T16:47:40.792Z,9.60
2019-04-05T16:50:09.062Z,9.49
2019-04-05T16:52:44.761Z,9.54
2019-04-05T16:55:07.252Z,9.37
2019-04-05T16:57:35.336Z,9.23
2019-04-05T17:00:06.169Z,9.21
2019-04-05T17:02:34.745Z,9.17
2019-04-05T17:05:04.358Z,9.17
2019-04-05T17:07:32.113Z,9.15
2019-04-05T17:09:59.878Z,9.17
2019-04-05T17:12:27.952Z,9.15
2019-04-05T17:14:56.119Z,9.10
2019-04-05T17:17:23.988Z,8.97
2019-04-05T17:19:52.062Z,8.92
2019-04-05T17:22:20.135Z,8.88
2019-04-05T17:24:48.005Z,8.81
2019-04-05T17:27:16.167Z,8.84
2019-04-05T17:29:44.039Z,8.76
2019-04-05T17:32:12.000Z,8.79
2019-04-05T17:34:40.071Z,8.58
2019-04-05T17:37:09.270Z,8.55
2019-04-05T17:39:37.443Z,8.49
2019-04-05T17:42:05.413Z,8.48
2019-04-05T17:44:33.449Z,8.49
2019-04-05T17:47:01.553Z,8.47
2019-04-05T17:49:29.724Z,8.51
2019-04-05T17:51:57.799Z,8.45
2019-04-05T17:54:26.385Z,8.40
2019-04-05T17:56:54.252Z,8.40
2019-04-05T17:59:22.217Z,8.22
2019-04-05T18:01:50.800Z,8.06
2019-04-05T18:04:18.975Z,8.08
2019-04-05T18:06:47.144Z,8.12
2019-04-05T18:09:15.141Z,8.10
2019-04-05T18:11:43.202Z,8.06
2019-04-05T18:14:11.255Z,8.01
2019-04-05T18:16:39.325Z,8.23
2019-04-05T18:19:07.397Z,8.57
2019-04-05T18:21:36.295Z,8.33
2019-04-05T18:24:04.355Z,8.20
2019-04-05T18:26:32.329Z,8.28
2019-04-05T18:29:00.404Z,8.27
2019-04-05T18:31:28.575Z,8.12
2019-04-05T18:33:56.537Z,8.13
2019-04-05T18:36:24.514Z,7.95
2019-04-05T18:38:52.578Z,7.95
2019-04-05T18:41:20.440Z,7.97
2019-04-05T18:43:48.412Z,8.08
2019-04-05T18:46:16.383Z,7.98
2019-04-05T18:48:46.292Z,7.93
2019-04-05T18:51:14.465Z,7.87
2019-04-05T18:53:42.849Z,7.83
2019-04-05T18:56:10.602Z,7.77
2019-04-05T18:58:39.039Z,7.68
2019-04-05T19:01:07.464Z,7.63
2019-04-05T19:03:35.432Z,7.65
2019-04-05T19:06:04.219Z,7.84
2019-04-05T19:08:39.420Z,7.77
2019-04-05T19:11:02.012Z,7.85
2019-04-05T19:13:29.965Z,7.96
2019-04-05T19:15:58.140Z,7.94
2019-04-05T19:18:26.221Z,8.13
2019-04-05T19:20:54.280Z,8.06
2019-04-05T19:23:22.356Z,8.06
2019-04-05T19:25:50.318Z,8.06
2019-04-05T19:28:18.595Z,8.03
2019-04-05T19:48:31.095Z,7.25
2019-04-05T19:50:45.261Z,7.21
2019-04-05T19:53:13.842Z,7.18
2019-04-05T19:55:41.723Z,7.19
2019-04-05T19:58:09.781Z,7.11
2019-04-05T20:00:38.569Z,7.04
2019-04-05T20:03:06.543Z,6.84
2019-04-05T20:05:34.915Z,6.86
2019-04-05T20:08:02.915Z,6.78
2019-04-05T20:10:30.857Z,6.53
2019-04-05T20:12:59.030Z,6.62
2019-04-05T20:15:26.892Z,6.65
2019-04-05T20:17:54.861Z,6.40
2019-04-05T20:20:23.030Z,6.50
2019-04-05T20:22:50.896Z,6.44
2019-04-05T20:25:19.051Z,6.40
2019-04-05T20:27:47.048Z,6.26
2019-04-05T20:30:15.025Z,6.06
2019-04-05T20:32:43.079Z,6.19
2019-04-05T20:35:11.146Z,6.10
2019-04-05T20:37:41.375Z,5.99
2019-04-05T20:40:10.259Z,6.11
2019-04-05T20:42:38.333Z,6.08
2019-04-05T20:45:06.199Z,6.00
2019-04-05T20:47:34.271Z,5.77
2019-04-05T20:50:03.880Z,5.68
2019-04-05T20:52:31.844Z,5.75
2019-04-05T20:54:59.708Z,5.38
2019-04-05T20:57:27.676Z,5.34
2019-04-05T20:59:55.545Z,5.33
2019-04-05T21:02:24.025Z,5.07
2019-04-05T21:04:52.092Z,5.20
2019-04-05T21:07:20.064Z,5.17
2019-04-05T21:09:48.107Z,5.04
2019-04-05T21:12:15.996Z,4.86
2019-04-05T21:14:44.071Z,4.66
2019-04-05T21:17:12.048Z,4.82
2019-04-05T21:19:40.106Z,5.26
2019-04-05T21:22:09.106Z,5.48
2019-04-05T21:24:37.122Z,5.48
2019-04-05T21:27:05.139Z,5.18
2019-04-05T21:29:33.313Z,5.20
2019-04-05T21:32:01.283Z,5.20
2019-04-05T21:34:29.263Z,5.09
2019-04-05T21:36:57.426Z,4.88
2019-04-05T21:39:25.524Z,4.83
2019-04-05T21:41:53.255Z,4.90
2019-04-05T21:44:21.223Z,4.76
2019-04-05T21:46:49.295Z,4.78
2019-04-05T21:49:17.264Z,5.07
2019-04-05T21:51:45.343Z,4.92
2019-04-05T21:54:15.252Z,4.77
2019-04-05T21:56:45.459Z,4.70
2019-04-05T21:59:13.131Z,4.70
2019-04-05T22:01:42.434Z,4.53
2019-04-05T22:04:10.397Z,4.48
2019-04-05T22:06:38.471Z,4.33
2019-04-05T22:09:07.877Z,4.27
2019-04-05T22:11:36.353Z,4.34
2019-04-05T22:14:04.834Z,4.34
2019-04-05T22:16:32.906Z,4.19
2019-04-05T22:19:01.901Z,4.04
2019-04-05T22:21:29.861Z,4.01
2019-04-05T22:23:57.935Z,3.85
2019-04-05T22:26:25.804Z,3.90
2019-04-05T22:28:53.771Z,4.13
2019-04-05T22:31:21.743Z,4.17
2019-04-05T22:33:49.605Z,4.37
2019-04-05T22:36:17.568Z,4.28
2019-04-05T22:38:45.547Z,4.14
2019-04-05T22:41:13.422Z,3.87
2019-04-05T22:43:41.274Z,3.85
2019-04-05T22:46:09.256Z,3.73
2019-04-05T22:48:37.212Z,3.81
2019-04-05T22:51:05.789Z,3.86
2019-04-05T22:53:34.373Z,3.71
2019-04-05T22:56:02.651Z,3.76
2019-04-05T22:58:30.615Z,3.72
2019-04-05T23:00:59.612Z,3.70
2019-04-05T23:03:27.375Z,3.74
2019-04-05T23:05:56.261Z,3.71
2019-04-05T23:08:24.440Z,3.97
2019-04-05T23:10:52.303Z,4.14
2019-04-05T23:13:20.070Z,4.23
2019-04-05T23:15:47.937Z,4.23
2019-04-05T23:18:15.715Z,4.22
2019-04-05T23:20:43.661Z,4.12
2019-04-05T23:23:11.426Z,4.13
2019-04-05T23:25:39.294Z,3.96
2019-04-05T23:28:07.058Z,3.79
2019-04-05T23:30:34.821Z,4.09
2019-04-05T23:33:02.795Z,4.32
2019-04-05T23:35:30.757Z,4.26
2019-04-05T23:37:58.904Z,4.39
2019-04-05T23:40:29.667Z,4.21
2019-04-05T23:42:57.428Z,4.01
2019-04-05T23:45:25.289Z,4.19
2019-04-05T23:47:53.369Z,4.19
2019-04-05T23:50:21.226Z,4.23
2019-04-05T23:52:49.816Z,4.06
2019-04-05T23:55:17.879Z,4.00
2019-04-05T23:57:45.819Z,4.02
